Time;durP1;ratioP1;P1;durP2;ratioP2;P2;SDS_P1;SDS_P2;PMS_P1;PMS_P2;Temp;Humidity;BMP_temperature;BMP_pressure;BME280_temperature;BME280_humidity;BME280_pressure;Samples;Min_cycle;Max_cycle;Signal;HPM_P1;HPM_P2
2023/05/18 00:02:14;;;;;;;12.45;2.85;;;;;;;6.72;71.26;102669.34;5082613;28;20049;-71
2023/05/18 00:05:00;;;;;;;10.60;2.85;;;;;;;6.70;71.37;102668.44;5084376;28;20127;-70
2023/05/18 00:07:46;;;;;;;8.75;2.83;;;;;;;6.67;71.54;102668.38;5084028;28;20044;-70
2023/05/18 00:10:31;;;;;;;9.48;2.45;;;;;;;6.64;71.75;102668.34;5067568;28;20140;-71
2023/05/18 00:13:17;;;;;;;11.13;3.05;;;;;;;6.57;71.78;102667.38;5080933;28;20505;-71
2023/05/18 00:16:02;;;;;;;12.68;3.40;;;;;;;6.51;71.86;102670.78;5085380;28;20532;-71
2023/05/18 00:18:47;;;;;;;8.07;3.03;;;;;;;6.46;72.12;102667.19;5083720;28;20078;-70
2023/05/18 00:21:34;;;;;;;7.43;2.75;;;;;;;6.40;72.27;102664.47;5085321;28;20560;-70
2023/05/18 00:24:19;;;;;;;10.20;3.08;;;;;;;6.36;72.39;102666.19;5069962;28;20041;-70
2023/05/18 00:27:04;;;;;;;6.78;2.63;;;;;;;6.32;72.62;102666.09;5083779;28;20049;-72
2023/05/18 00:29:50;;;;;;;10.80;3.05;;;;;;;6.28;72.69;102654.69;5071049;28;20052;-71
2023/05/18 00:32:36;;;;;;;7.80;2.70;;;;;;;6.26;72.82;102659.03;5069339;28;20100;-71
2023/05/18 00:35:21;;;;;;;10.23;2.83;;;;;;;6.22;72.87;102668.56;5071319;28;20052;-71
2023/05/18 00:38:07;;;;;;;11.15;2.83;;;;;;;6.21;72.94;102668.53;5081166;28;20041;-70
2023/05/18 00:40:52;;;;;;;11.18;3.20;;;;;;;6.17;72.87;102678.06;5073550;28;20088;-71
2023/05/18 00:43:41;;;;;;;12.13;2.83;;;;;;;6.14;73.05;102678.03;5089367;28;20095;-70
2023/05/18 00:46:27;;;;;;;9.75;3.28;;;;;;;6.12;73.32;102684.06;5077839;28;20044;-71
2023/05/18 00:49:13;;;;;;;7.72;2.80;;;;;;;6.09;73.20;102676.19;5089456;28;20053;-71
2023/05/18 00:51:58;;;;;;;11.60;2.95;;;;;;;6.04;73.56;102683.97;5077245;28;20078;-71
2023/05/18 00:54:44;;;;;;;8.88;2.70;;;;;;;5.99;73.83;102680.31;5077030;28;20041;-71
2023/05/18 00:57:31;;;;;;;7.20;2.92;;;;;;;5.94;73.97;102682.88;5086540;28;20052;-70
2023/05/18 01:00:16;;;;;;;7.22;3.00;;;;;;;5.87;74.04;102683.59;5073743;28;20045;-71
2023/05/18 01:03:03;;;;;;;10.13;3.42;;;;;;;5.84;74.60;102681.81;5087612;28;20157;-72
2023/05/18 01:05:49;;;;;;;10.38;2.95;;;;;;;5.82;74.71;102685.25;5061684;28;20037;-72
2023/05/18 01:08:36;;;;;;;9.05;3.13;;;;;;;5.77;74.73;102682.53;5070544;28;20056;-71
2023/05/18 01:11:52;;;;;;;8.18;3.35;;;;;;;5.75;75.19;102682.53;5076844;28;20820;-71
2023/05/18 01:15:07;;;;;;;8.80;3.22;;;;;;;5.70;75.29;102678.06;5088578;28;20041;-70
2023/05/18 01:18:06;;;;;;;8.70;2.90;;;;;;;5.69;75.42;102682.41;5088252;28;20131;-70
2023/05/18 01:21:12;;;;;;;8.55;3.10;;;;;;;5.66;75.70;102684.06;5085634;28;20103;-70
2023/05/18 01:24:29;;;;;;;11.30;3.10;;;;;;;5.60;75.90;102683.09;5086625;28;20049;-71
2023/05/18 01:27:16;;;;;;;8.30;3.13;;;;;;;5.56;75.96;102681.25;5067560;28;20045;-70
2023/05/18 01:30:04;;;;;;;8.32;3.17;;;;;;;5.54;76.13;102683.00;5070053;28;20552;-70
2023/05/18 01:32:50;;;;;;;12.60;3.35;;;;;;;5.53;76.36;102686.47;5076929;28;20044;-70
2023/05/18 01:35:37;;;;;;;9.38;3.17;;;;;;;5.53;76.65;102688.19;5087808;28;20045;-70
2023/05/18 01:38:25;;;;;;;8.48;3.70;;;;;;;5.51;76.56;102685.53;5084883;28;20084;-71
2023/05/18 01:41:17;;;;;;;9.82;3.92;;;;;;;5.49;76.87;102689.84;5057247;28;21061;-71
2023/05/18 01:44:16;;;;;;;11.98;3.75;;;;;;;5.47;76.94;102691.53;5085121;28;20186;-71
2023/05/18 01:47:11;;;;;;;12.35;3.50;;;;;;;5.43;76.84;102687.13;5069643;28;20124;-71
2023/05/18 01:50:09;;;;;;;;;;;;;;;5.39;76.76;102690.50;5094965;28;20057;-71
2023/05/18 01:53:16;;;;;;;8.65;3.42;;;;;;;5.35;77.32;102692.19;5088905;28;20046;-71
2023/05/18 01:56:07;;;;;;;7.05;3.40;;;;;;;5.34;77.46;102692.16;5066688;28;20057;-71
2023/05/18 01:58:53;;;;;;;7.95;3.08;;;;;;;5.29;77.79;102686.84;5068779;28;20048;-71
2023/05/18 02:01:38;;;;;;;10.50;3.40;;;;;;;5.26;78.17;102689.38;5072611;28;20060;-71
2023/05/18 02:04:24;;;;;;;10.98;4.10;;;;;;;5.24;78.35;102691.94;5082873;28;20044;-71
2023/05/18 02:07:09;;;;;;;10.27;3.72;;;;;;;5.20;78.30;102684.00;5041842;28;20054;-70
2023/05/18 02:09:54;;;;;;;7.85;3.10;;;;;;;5.15;78.34;102688.25;5041667;28;20049;-70
2023/05/18 02:12:40;;;;;;;8.90;3.45;;;;;;;5.13;78.76;102686.50;5045055;28;20045;-71
2023/05/18 02:15:27;;;;;;;11.50;3.60;;;;;;;5.09;78.84;102695.09;5038080;28;20049;-70
2023/05/18 02:18:13;;;;;;;6.95;3.35;;;;;;;5.07;78.97;102693.31;5043974;28;20509;-70
2023/05/18 02:20:59;;;;;;;12.18;3.90;;;;;;;5.05;78.97;102684.53;5041800;28;20045;-71
2023/05/18 02:23:44;;;;;;;8.90;3.78;;;;;;;5.02;79.21;102687.97;5041881;28;20046;-71
2023/05/18 02:26:31;;;;;;;10.98;3.70;;;;;;;5.03;79.47;102683.66;5058576;28;20497;-70
2023/05/18 02:29:17;;;;;;;8.70;3.95;;;;;;;5.00;79.44;102678.34;5047936;28;20042;-71
2023/05/18 02:32:03;;;;;;;10.80;3.75;;;;;;;4.97;79.63;102674.81;5032587;28;20046;-71
2023/05/18 02:34:52;;;;;;;9.68;3.78;;;;;;;4.96;79.93;102670.41;5033759;28;20069;-71
2023/05/18 02:37:42;;;;;;;15.25;3.88;;;;;;;4.93;80.01;102678.22;5039463;28;20743;-71
2023/05/18 02:40:28;;;;;;;8.93;3.58;;;;;;;4.88;79.95;102672.00;5040257;28;20046;-71
2023/05/18 02:43:13;;;;;;;10.45;4.05;;;;;;;4.87;80.08;102680.69;5051352;28;20045;-71
2023/05/18 02:45:59;;;;;;;13.40;4.53;;;;;;;4.82;80.04;102677.09;5019251;28;20076;-71
2023/05/18 02:48:45;;;;;;;9.93;3.90;;;;;;;4.79;80.20;102685.72;5055827;28;20049;-72
2023/05/18 02:51:31;;;;;;;10.38;3.90;;;;;;;4.75;80.32;102677.78;5056450;28;20041;-71
2023/05/18 02:54:17;;;;;;;12.27;4.03;;;;;;;4.71;80.61;102681.19;5034227;28;21776;-71
2023/05/18 02:57:03;;;;;;;9.82;4.03;;;;;;;4.65;80.82;102672.34;5058640;28;20604;-71
2023/05/18 03:00:00;;;;;;;12.52;3.65;;;;;;;4.61;81.06;102669.59;5045585;28;20057;-71
2023/05/18 03:02:47;;;;;;;11.13;3.85;;;;;;;4.60;81.30;102671.34;5033089;28;20046;-71
2023/05/18 03:05:32;;;;;;;7.90;3.85;;;;;;;4.55;81.39;102670.34;5063451;28;20549;-71
2023/05/18 03:08:25;;;;;;;11.25;4.15;;;;;;;4.53;81.47;102665.94;5075264;28;20040;-71
2023/05/18 03:11:11;;;;;;;8.55;3.95;;;;;;;4.50;81.55;102671.97;5070281;28;20544;-71
2023/05/18 03:13:57;;;;;;;9.20;3.97;;;;;;;4.47;81.69;102669.28;5066142;28;20049;-71
2023/05/18 03:16:43;;;;;;;10.27;3.97;;;;;;;4.46;81.88;102670.13;5069290;28;20038;-71
2023/05/18 03:19:33;;;;;;;15.75;4.30;;;;;;;4.43;81.95;102672.66;5063353;28;20037;-70
2023/05/18 03:22:19;;;;;;;8.38;3.95;;;;;;;4.41;82.27;102669.16;5075668;28;20049;-70
2023/05/18 03:25:06;;;;;;;10.63;4.00;;;;;;;4.37;82.27;102668.19;5072815;28;20048;-70
2023/05/18 03:27:52;;;;;;;9.45;3.95;;;;;;;4.38;82.27;102663.84;5074072;28;20122;-71
2023/05/18 03:30:37;;;;;;;9.30;3.80;;;;;;;4.37;82.37;102670.81;5065421;28;20087;-71
2023/05/18 03:33:23;;;;;;;9.35;4.18;;;;;;;4.37;82.39;102670.81;5071599;28;20127;-71
2023/05/18 03:36:09;;;;;;;9.95;4.47;;;;;;;4.41;82.66;102671.75;5085037;28;20052;-70
2023/05/18 03:38:55;;;;;;;10.32;4.05;;;;;;;4.40;82.54;102672.59;5087301;28;20507;-70
2023/05/18 03:41:40;;;;;;;9.93;3.90;;;;;;;4.39;82.71;102669.09;5063060;28;20140;-71
2023/05/18 03:44:26;;;;;;;8.90;3.83;;;;;;;4.43;82.75;102670.03;5081495;28;20049;-71
2023/05/18 03:47:13;;;;;;;11.70;4.13;;;;;;;4.43;82.81;102675.25;5062791;28;20087;-73
2023/05/18 03:49:58;;;;;;;7.82;4.32;;;;;;;4.44;82.68;102677.03;5047520;28;20110;-72
2023/05/18 03:52:45;;;;;;;11.48;4.10;;;;;;;4.45;82.80;102677.09;5072083;28;20044;-70
2023/05/18 03:55:30;;;;;;;8.00;4.05;;;;;;;4.49;82.71;102673.69;5066437;28;20550;-70
2023/05/18 03:58:18;;;;;;;10.68;4.40;;;;;;;4.55;82.68;102679.94;5065364;28;20509;-70
2023/05/18 04:01:04;;;;;;;8.10;3.90;;;;;;;4.61;82.59;102677.44;5056046;28;20061;-70
2023/05/18 04:03:50;;;;;;;7.13;4.07;;;;;;;4.71;82.12;102675.94;5059456;28;20984;-70
2023/05/18 04:06:36;;;;;;;10.85;4.10;;;;;;;4.84;81.92;102680.59;5068371;28;20057;-70
2023/05/18 04:09:22;;;;;;;11.52;4.00;;;;;;;4.91;81.68;102679.91;5086679;28;20634;-70
2023/05/18 04:12:11;;;;;;;14.95;4.32;;;;;;;4.97;81.36;102677.41;5084368;28;20049;-70
2023/05/18 04:14:57;;;;;;;16.90;4.35;;;;;;;5.09;80.91;102681.16;5072075;28;20079;-70
2023/05/18 04:17:44;;;;;;;9.57;4.07;;;;;;;5.18;80.74;102678.75;5079752;28;20516;-71
2023/05/18 04:20:30;;;;;;;9.60;3.80;;;;;;;5.25;80.66;102688.47;5070882;28;20049;-70
2023/05/18 04:23:15;;;;;;;10.82;3.90;;;;;;;5.34;80.30;102689.56;5085676;28;20095;-70
2023/05/18 04:26:01;;;;;;;11.50;4.50;;;;;;;5.44;79.84;102696.75;5064113;28;20479;-70
2023/05/18 04:28:46;;;;;;;8.32;4.22;;;;;;;5.49;79.59;102695.09;5074984;28;20060;-71
2023/05/18 04:31:33;;;;;;;8.43;3.65;;;;;;;5.56;79.26;102696.97;5080878;28;20046;-71
2023/05/18 04:34:18;;;;;;;9.90;4.10;;;;;;;5.64;78.91;102704.09;5088636;28;20547;-71
2023/05/18 04:37:09;;;;;;;11.45;4.03;;;;;;;5.73;78.72;102706.91;5081924;28;20139;-71
2023/05/18 04:39:55;;;;;;;11.02;3.38;;;;;;;5.86;78.27;102706.28;5057312;28;20150;-71
2023/05/18 04:42:44;;;;;;;10.93;3.92;;;;;;;6.04;77.88;102716.25;5070749;28;20072;-71
2023/05/18 04:45:30;;;;;;;10.25;4.20;;;;;;;6.39;76.87;102711.63;5071035;28;20049;-71
2023/05/18 04:48:18;;;;;;;9.15;3.83;;;;;;;7.08;74.32;102715.31;5070639;28;20056;-71
2023/05/18 04:51:05;;;;;;;12.57;4.38;;;;;;;7.23;73.10;102705.91;5070613;28;20136;-70
2023/05/18 04:53:56;;;;;;;8.98;3.35;;;;;;;7.18;73.09;102710.19;5084073;28;20041;-70
2023/05/18 04:56:41;;;;;;;11.60;4.03;;;;;;;7.34;72.54;102709.56;5068961;28;20048;-70
2023/05/18 04:59:35;;;;;;;9.85;3.88;;;;;;;7.70;71.04;102707.38;5086072;28;20049;-70
2023/05/18 05:02:21;;;;;;;7.70;3.28;;;;;;;8.03;69.80;102711.22;5078833;28;20404;-73
2023/05/18 05:05:09;;;;;;;7.80;3.10;;;;;;;8.16;69.81;102706.97;5071345;28;20968;-73
2023/05/18 05:07:55;;;;;;;9.43;3.50;;;;;;;8.32;69.66;102706.22;5080500;28;20045;-69
2023/05/18 05:10:41;;;;;;;8.68;3.05;;;;;;;8.61;69.95;102707.38;5078639;28;20096;-71
2023/05/18 05:13:27;;;;;;;10.25;3.40;;;;;;;8.79;69.41;102709.28;5086665;28;20581;-69
2023/05/18 05:16:12;;;;;;;7.15;3.00;;;;;;;9.00;68.44;102712.03;5087626;28;20063;-70
2023/05/18 05:18:57;;;;;;;11.45;2.88;;;;;;;9.38;66.89;102713.13;5080969;28;20041;-71
2023/05/18 05:21:43;;;;;;;9.07;2.70;;;;;;;9.27;65.74;102714.81;5068049;28;20127;-70
2023/05/18 05:24:29;;;;;;;8.10;3.13;;;;;;;9.31;66.02;102714.84;5085564;28;20049;-69
2023/05/18 05:27:14;;;;;;;7.57;2.78;;;;;;;9.78;63.95;102717.66;5073341;28;20036;-70
2023/05/18 05:30:00;;;;;;;10.38;2.90;;;;;;;10.44;62.03;102716.03;5069740;28;20072;-70
2023/05/18 05:32:45;;;;;;;8.90;2.72;;;;;;;11.38;59.04;102712.38;5082944;28;20522;-70
2023/05/18 05:35:31;;;;;;;11.73;3.10;;;;;;;12.26;57.00;102702.19;5078060;28;20119;-70
2023/05/18 05:38:18;;;;;;;5.13;2.42;;;;;;;12.73;54.71;102705.31;5074539;28;20134;-71
2023/05/18 05:41:04;;;;;;;10.02;2.70;;;;;;;12.95;53.29;102712.16;5079111;28;20433;-70
2023/05/18 05:43:51;;;;;;;8.30;2.47;;;;;;;13.24;51.85;102711.84;5069981;28;20568;-71
2023/05/18 05:46:36;;;;;;;9.82;2.83;;;;;;;13.27;51.14;102706.53;5073248;28;20052;-70
2023/05/18 05:49:23;;;;;;;9.77;2.58;;;;;;;13.39;49.84;102704.59;5081822;28;20045;-70
2023/05/18 05:52:08;;;;;;;10.25;1.92;;;;;;;13.56;50.68;102707.97;5082657;28;20048;-71
2023/05/18 05:54:54;;;;;;;12.60;2.40;;;;;;;13.96;48.97;102701.19;5084626;28;20534;-71
2023/05/18 05:57:41;;;;;;;9.25;2.50;;;;;;;14.04;48.07;102701.09;5057774;28;20487;-71
2023/05/18 06:00:27;;;;;;;9.38;2.60;;;;;;;14.47;47.28;102702.16;5078807;28;20619;-71
2023/05/18 06:03:17;;;;;;;5.50;2.22;;;;;;;14.28;47.45;102705.13;5099025;28;20112;-70
2023/05/18 06:06:04;;;;;;;9.27;2.47;;;;;;;13.21;48.62;102706.56;5095302;28;20509;-70
2023/05/18 06:08:50;;;;;;;13.05;2.60;;;;;;;12.35;50.68;102716.22;5072473;28;20051;-71
2023/05/18 06:11:41;;;;;;;8.93;2.30;;;;;;;11.75;52.71;102715.69;5078883;28;20119;-71
2023/05/18 06:14:26;;;;;;;9.18;2.50;;;;;;;11.34;53.99;102719.44;5084870;28;20040;-70
2023/05/18 06:17:14;;;;;;;9.63;2.40;;;;;;;11.12;54.81;102714.22;5099962;28;20048;-70
2023/05/18 06:20:00;;;;;;;10.57;2.40;;;;;;;10.88;55.03;102718.66;5078969;28;20102;-71
2023/05/18 06:22:46;;;;;;;6.15;2.50;;;;;;;10.69;55.71;102720.41;5083318;28;20052;-70
2023/05/18 06:25:49;;;;;;;8.05;2.78;;;;;;;10.74;56.28;102722.19;5072039;28;20045;-70
2023/05/18 06:28:45;;;;;;;11.18;2.88;;;;;;;10.72;56.25;102719.56;5070737;28;20048;-70
2023/05/18 06:32:00;;;;;;;6.65;2.70;;;;;;;10.62;56.55;102723.94;5078821;28;20075;-70
2023/05/18 06:34:54;;;;;;;13.07;2.90;;;;;;;10.51;56.46;102710.78;5062796;28;20056;-70
2023/05/18 06:37:39;;;;;;;9.57;2.70;;;;;;;10.40;57.54;102715.16;5087107;28;20463;-70
2023/05/18 06:40:24;;;;;;;9.20;2.80;;;;;;;10.36;57.18;102721.28;5063683;28;20048;-70
2023/05/18 06:43:09;;;;;;;7.13;2.78;;;;;;;10.26;57.30;102718.63;5076504;28;20072;-70
2023/05/18 06:46:03;;;;;;;9.60;2.85;;;;;;;10.16;57.85;102722.13;5085392;28;20453;-70
2023/05/18 06:48:57;;;;;;;;;;;;;;;10.09;57.81;102725.66;5078644;28;20056;-70
2023/05/18 06:51:44;;;;;;;;;;;;;;;10.03;58.43;102717.72;5081463;28;19974;-70
2023/05/18 06:54:31;;;;;;;11.02;2.83;;;;;;;10.01;58.39;102717.72;5086903;28;20964;-70
2023/05/18 06:57:17;;;;;;;20.63;3.35;;;;;;;10.01;59.07;102722.13;5079588;28;20406;-70
2023/05/18 07:00:06;;;;;;;12.50;3.05;;;;;;;10.05;58.69;102727.41;5102868;28;20650;-70
2023/05/18 07:02:51;;;;;;;11.00;3.03;;;;;;;10.08;58.80;102722.09;5081115;28;20048;-69
2023/05/18 07:05:36;;;;;;;10.68;2.80;;;;;;;10.18;59.13;102727.41;5077513;28;20785;-69
2023/05/18 07:08:24;;;;;;;8.70;3.00;;;;;;;10.31;57.63;102730.94;5090724;28;20083;-70
2023/05/18 07:11:09;;;;;;;10.20;3.35;;;;;;;10.33;58.02;102721.25;5074429;28;20615;-70
2023/05/18 07:13:55;;;;;;;8.93;2.63;;;;;;;10.43;57.07;102732.75;5092811;28;20096;-69
2023/05/18 07:16:42;;;;;;;10.38;3.00;;;;;;;10.47;57.42;102737.16;5081338;28;20822;-69
2023/05/18 07:19:28;;;;;;;8.52;2.70;;;;;;;10.60;57.28;102738.03;5094263;28;20056;-69
2023/05/18 07:22:13;;;;;;;8.50;2.80;;;;;;;10.71;57.32;102734.50;5103823;28;20527;-70
2023/05/18 07:24:59;;;;;;;13.13;2.85;;;;;;;10.80;56.46;102741.53;5077243;28;20044;-70
2023/05/18 07:27:44;;;;;;;8.52;2.83;;;;;;;10.83;56.57;102745.91;5083653;28;20051;-70
2023/05/18 07:30:30;;;;;;;9.77;2.63;;;;;;;10.87;57.16;102738.00;5067118;28;20038;-70
2023/05/18 07:33:16;;;;;;;6.75;2.42;;;;;;;10.95;56.97;102748.56;5091087;28;20048;-70
2023/05/18 07:36:01;;;;;;;8.73;2.47;;;;;;;11.09;55.66;102737.97;5087329;28;20166;-70
2023/05/18 07:38:51;;;;;;;9.27;2.50;;;;;;;11.10;55.73;102752.91;5100730;28;20040;-70
2023/05/18 07:41:37;;;;;;;6.93;2.30;;;;;;;11.15;55.70;102742.34;5080082;28;20044;-70
2023/05/18 07:44:23;;;;;;;9.73;2.80;;;;;;;11.19;55.29;102750.25;5093739;28;20096;-70
2023/05/18 07:47:08;;;;;;;7.80;2.53;;;;;;;11.25;55.69;102746.72;5108052;28;20048;-70
2023/05/18 07:49:54;;;;;;;7.32;2.40;;;;;;;11.35;55.63;102747.56;5072985;28;20123;-70
2023/05/18 07:52:40;;;;;;;8.27;2.70;;;;;;;11.49;54.29;102752.81;5088512;28;20102;-70
2023/05/18 07:55:25;;;;;;;11.68;2.35;;;;;;;11.45;54.36;102749.28;5102997;28;20040;-70
2023/05/18 07:58:12;;;;;;;7.85;2.67;;;;;;;11.52;53.90;102750.16;5094385;28;20564;-70
2023/05/18 08:00:57;;;;;;;10.27;2.53;;;;;;;11.60;54.54;102751.00;5099622;28;20053;-70
2023/05/18 08:03:42;;;;;;;9.70;2.67;;;;;;;11.75;54.27;102755.31;5087948;28;20460;-70
2023/05/18 08:06:28;;;;;;;7.72;2.63;;;;;;;11.95;54.67;102757.88;5088414;28;20674;-70
2023/05/18 08:09:14;;;;;;;10.25;2.75;;;;;;;12.08;53.97;102763.16;5098033;28;20160;-70
2023/05/18 08:11:59;;;;;;;8.98;2.60;;;;;;;12.22;51.97;102763.91;5100695;28;20049;-69
2023/05/18 08:14:45;;;;;;;6.35;2.25;;;;;;;12.13;53.15;102760.47;5108529;28;20516;-71
2023/05/18 08:17:30;;;;;;;9.35;2.78;;;;;;;12.15;52.12;102764.84;5092336;28;20051;-69
2023/05/18 08:20:16;;;;;;;10.00;2.70;;;;;;;12.13;52.02;102763.09;5075058;28;20047;-72
2023/05/18 08:23:01;;;;;;;8.88;2.00;;;;;;;12.13;52.06;102765.75;5100755;28;20045;-71
2023/05/18 08:25:46;;;;;;;8.15;2.35;;;;;;;12.10;51.81;102762.22;5089523;28;20051;-70
2023/05/18 08:28:32;;;;;;;6.78;2.30;;;;;;;12.06;52.36;102749.91;5070031;28;20116;-70
2023/05/18 08:31:17;;;;;;;9.27;2.90;;;;;;;12.04;53.25;102751.72;5094366;28;20048;-71
2023/05/18 08:34:04;;;;;;;8.70;2.60;;;;;;;12.28;52.20;102752.41;5093401;28;20159;-70
2023/05/18 08:36:51;;;;;;;7.90;2.55;;;;;;;12.32;51.46;102750.63;5101860;28;20596;-70
2023/05/18 08:39:37;;;;;;;6.90;2.17;;;;;;;12.35;51.09;102753.25;5103286;28;20565;-70
2023/05/18 08:42:33;;;;;;;8.38;2.50;;;;;;;12.31;50.66;102748.91;5077861;28;20110;-71
2023/05/18 08:45:47;;;;;;;9.10;2.47;;;;;;;12.25;51.48;102745.41;5094869;28;20044;-71
2023/05/18 08:48:33;;;;;;;11.90;2.50;;;;;;;12.24;51.39;102751.56;5081505;28;20048;-71
2023/05/18 08:51:20;;;;;;;11.55;3.08;;;;;;;12.23;52.65;102749.81;5096643;28;20048;-71
2023/05/18 08:54:09;;;;;;;7.20;2.33;;;;;;;12.37;51.95;102743.56;5105577;28;20499;-71
2023/05/18 08:56:57;;;;;;;9.40;2.90;;;;;;;12.36;52.28;102745.31;5101332;28;20044;-71
2023/05/18 08:59:44;;;;;;;8.50;2.30;;;;;;;12.43;51.41;102739.09;5086629;28;20053;-71
2023/05/18 09:02:32;;;;;;;11.68;2.83;;;;;;;12.48;51.25;102736.41;5066472;28;20133;-71
2023/05/18 09:05:19;;;;;;;8.82;2.83;;;;;;;12.49;50.80;102734.63;5097365;28;20127;-71
2023/05/18 09:08:07;;;;;;;11.05;2.78;;;;;;;12.51;51.34;102735.50;5079927;28;20120;-71
2023/05/18 09:10:57;;;;;;;12.13;3.15;;;;;;;12.66;51.37;102722.16;5100057;28;20049;-71
2023/05/18 09:13:43;;;;;;;11.52;2.42;;;;;;;12.78;50.61;102725.56;5105484;27;20040;-71
2023/05/18 09:16:29;;;;;;;7.50;2.33;;;;;;;12.95;49.64;102728.03;5062404;28;20048;-71
2023/05/18 09:19:15;;;;;;;5.82;2.10;;;;;;;13.10;48.21;102722.59;5099790;28;20097;-71
2023/05/18 09:22:00;;;;;;;9.35;3.03;;;;;;;13.39;48.01;102717.84;5099851;28;20533;-71
2023/05/18 09:24:47;;;;;;;7.82;2.33;;;;;;;13.69;47.29;102719.28;5106166;28;20048;-71
2023/05/18 09:27:33;;;;;;;12.20;2.78;;;;;;;13.92;45.60;102718.94;5094868;28;20125;-71
2023/05/18 09:30:18;;;;;;;10.68;2.72;;;;;;;14.09;45.85;102716.03;5077142;28;20455;-71
2023/05/18 09:33:04;;;;;;;7.05;2.53;;;;;;;14.20;46.21;102707.91;5096971;28;20080;-71
2023/05/18 09:35:51;;;;;;;7.68;2.80;;;;;;;14.23;44.62;102710.50;5081526;28;20760;-71
2023/05/18 09:38:44;;;;;;;6.90;2.38;;;;;;;14.20;43.90;102721.16;5081062;28;20798;-71
2023/05/18 09:41:30;;;;;;;9.90;2.45;;;;;;;14.00;44.13;102707.34;5094426;28;20507;-71
2023/05/18 09:44:16;;;;;;;10.18;2.50;;;;;;;13.86;44.67;102710.19;5075750;28;20075;-71
2023/05/18 09:47:10;;;;;;;7.45;2.38;;;;;;;14.06;44.50;102704.59;5085849;28;20052;-71
2023/05/18 09:49:56;;;;;;;5.43;2.45;;;;;;;14.26;43.84;102706.94;5076961;28;20044;-71
2023/05/18 09:52:44;;;;;;;7.40;2.30;;;;;;;14.40;44.03;102704.94;5100300;28;20580;-71
2023/05/18 09:55:29;;;;;;;9.10;2.30;;;;;;;14.66;45.33;102700.94;5101556;28;20143;-71
2023/05/18 09:58:16;;;;;;;6.93;2.67;;;;;;;15.12;43.15;102704.53;5092013;28;20048;-71
2023/05/18 10:01:02;;;;;;;9.13;2.30;;;;;;;15.35;42.01;102700.56;5099142;28;20040;-69
2023/05/18 10:03:48;;;;;;;7.80;2.42;;;;;;;15.34;40.74;102699.69;5083707;28;20041;-72
2023/05/18 10:06:35;;;;;;;7.03;2.25;;;;;;;15.32;41.20;102701.50;5076688;28;20185;-71
2023/05/18 10:09:20;;;;;;;8.93;2.92;;;;;;;15.12;40.95;102707.19;5089150;28;20048;-71
2023/05/18 10:12:18;;;;;;;9.02;2.70;;;;;;;14.75;41.88;102706.13;5072932;28;20577;-70
2023/05/18 10:15:09;;;;;;;12.48;2.85;;;;;;;14.56;42.72;102697.59;5098736;28;20190;-70
2023/05/18 10:17:56;;;;;;;10.30;3.22;;;;;;;14.42;42.85;102692.53;5099127;28;20059;-71
2023/05/18 10:20:44;;;;;;;7.35;2.28;;;;;;;14.64;42.25;102699.22;5098525;28;20101;-71
2023/05/18 10:23:40;;;;;;;8.07;2.88;;;;;;;14.57;42.24;102694.03;5065914;27;20041;-70
2023/05/18 10:26:29;;;;;;;6.80;2.30;;;;;;;14.36;43.22;102683.78;5092827;28;20036;-71
2023/05/18 10:29:16;;;;;;;7.22;2.30;;;;;;;14.58;43.77;102693.16;5077937;28;20045;-71
2023/05/18 10:32:03;;;;;;;7.05;2.13;;;;;;;14.80;42.98;102681.28;5079397;28;20134;-70
2023/05/18 10:34:54;;;;;;;8.77;2.70;;;;;;;15.04;43.67;102674.63;5071020;28;20111;-70
2023/05/18 10:37:46;;;;;;;7.15;2.33;;;;;;;15.31;43.09;102675.84;5077217;28;20049;-70
2023/05/18 10:40:35;;;;;;;8.68;2.75;;;;;;;15.31;41.75;102673.19;5058601;28;20044;-70
2023/05/18 10:43:26;;;;;;;4.68;1.92;;;;;;;15.49;41.05;102679.00;5076186;28;20102;-70
2023/05/18 10:46:14;;;;;;;6.38;2.60;;;;;;;15.16;41.82;102677.03;5086597;28;20155;-70
2023/05/18 10:49:04;;;;;;;10.32;3.08;;;;;;;14.98;41.82;102674.75;5077720;28;20115;-70
2023/05/18 10:51:55;;;;;;;6.93;2.72;;;;;;;14.75;43.27;102660.97;5066924;28;20045;-70
2023/05/18 10:54:42;;;;;;;6.00;2.70;;;;;;;15.03;42.03;102672.84;5089963;28;20433;-70
2023/05/18 10:57:36;;;;;;;6.93;2.60;;;;;;;14.96;41.69;102673.91;5097279;28;20091;-70
2023/05/18 11:00:22;;;;;;;7.85;2.70;;;;;;;14.85;43.36;102661.69;5070000;28;20483;-70
2023/05/18 11:03:14;;;;;;;9.35;3.08;;;;;;;15.07;42.56;102670.09;5065281;28;20575;-69
2023/05/18 11:06:09;;;;;;;9.82;2.80;;;;;;;15.17;41.85;102664.59;5074885;28;20057;-69
2023/05/18 11:08:57;;;;;;;10.77;3.17;;;;;;;15.25;41.71;102672.41;5064813;28;20727;-70
2023/05/18 11:11:56;;;;;;;8.38;2.92;;;;;;;15.21;42.41;102666.31;5078889;28;20568;-70
2023/05/18 11:14:52;;;;;;;8.43;2.70;;;;;;;15.32;41.55;102660.75;5077444;28;20040;-70
2023/05/18 11:17:37;;;;;;;6.47;2.70;;;;;;;15.37;41.14;102658.88;5097971;28;20091;-71
2023/05/18 11:20:24;;;;;;;9.05;3.03;;;;;;;15.38;40.89;102655.31;5074435;28;20237;-71
2023/05/18 11:23:10;;;;;;;10.48;3.20;;;;;;;15.34;41.69;102661.59;5092259;28;20125;-71
2023/05/18 11:26:03;;;;;;;7.45;2.72;;;;;;;15.42;40.75;102651.66;5080502;28;20570;-71
2023/05/18 11:28:51;;;;;;;6.50;2.53;;;;;;;15.48;41.31;102655.97;5059582;28;20083;-71
2023/05/18 11:31:48;;;;;;;7.78;3.00;;;;;;;15.48;40.33;102650.66;5101672;28;20044;-72
2023/05/18 11:34:46;;;;;;;7.97;2.40;;;;;;;15.49;40.36;102655.06;5079804;28;20151;-71
2023/05/18 11:37:37;;;;;;;8.65;2.53;;;;;;;15.38;40.00;102648.22;5072185;28;20040;-71
2023/05/18 11:40:47;;;;;;;6.90;3.13;;;;;;;15.38;40.65;102645.56;5074350;28;20040;-71
2023/05/18 11:43:32;;;;;;;8.48;3.47;;;;;;;15.47;41.23;102647.16;5090061;28;20041;-72
2023/05/18 11:46:20;;;;;;;6.90;2.65;;;;;;;15.67;41.10;102644.00;5065141;28;20483;-71
2023/05/18 11:49:07;;;;;;;8.93;2.75;;;;;;;15.73;40.56;102640.34;5094200;28;20080;-73
2023/05/18 11:52:11;;;;;;;8.82;2.78;;;;;;;15.73;40.36;102637.69;5078665;28;20041;-71
2023/05/18 11:54:59;;;;;;;8.02;2.67;;;;;;;15.72;40.67;102643.06;5080852;28;20866;-71
2023/05/18 11:57:51;;;;;;;8.35;2.60;;;;;;;15.82;39.30;102632.16;5076586;28;20044;-71
2023/05/18 12:00:38;;;;;;;8.55;2.92;;;;;;;15.71;39.84;102622.69;5071744;28;20157;-71
2023/05/18 12:03:30;;;;;;;8.82;2.85;;;;;;;15.75;39.69;102619.06;5083078;28;20049;-71
2023/05/18 12:06:15;;;;;;;8.40;3.10;;;;;;;15.68;40.26;102615.66;5072077;28;20052;-71
2023/05/18 12:09:02;;;;;;;9.50;2.83;;;;;;;15.75;40.95;102619.91;5083673;28;20584;-71
2023/05/18 12:11:49;;;;;;;7.47;2.50;;;;;;;16.02;39.00;102621.97;5072986;28;20143;-71
2023/05/18 12:14:43;;;;;;;9.75;2.83;;;;;;;15.97;39.53;102611.47;5078840;28;20055;-71
2023/05/18 12:17:43;;;;;;;8.98;2.70;;;;;;;16.18;40.32;102612.69;5091016;28;20044;-72
2023/05/18 12:20:29;;;;;;;8.48;2.60;;;;;;;16.40;40.69;102613.00;5077727;28;20321;-72
2023/05/18 12:23:15;;;;;;;9.13;3.10;;;;;;;16.63;38.97;102610.63;5098161;28;20048;-72
2023/05/18 12:26:00;;;;;;;10.05;2.67;;;;;;;16.74;38.52;102605.88;5059719;28;20057;-72
2023/05/18 12:28:45;;;;;;;6.90;2.38;;;;;;;16.93;38.08;102611.56;5101220;27;20863;-72
2023/05/18 12:31:31;;;;;;;5.25;2.90;;;;;;;16.97;37.15;102615.03;5077162;28;20915;-72
2023/05/18 12:34:17;;;;;;;5.97;2.60;;;;;;;16.79;38.01;102605.75;5071010;28;20174;-71
2023/05/18 12:37:03;;;;;;;6.22;2.50;;;;;;;16.85;38.01;102600.22;5095363;28;20139;-72
2023/05/18 12:39:52;;;;;;;6.05;2.30;;;;;;;17.04;35.46;102604.13;5084922;28;20106;-72
2023/05/18 12:42:38;;;;;;;5.63;2.22;;;;;;;16.85;36.11;102602.91;5059383;28;20037;-71
2023/05/18 12:45:27;;;;;;;6.57;2.40;;;;;;;16.73;36.76;102597.03;5073661;28;20274;-72
2023/05/18 12:48:13;;;;;;;6.72;2.50;;;;;;;16.71;37.85;102596.19;5088498;28;20057;-72
2023/05/18 12:51:00;;;;;;;7.20;2.67;;;;;;;16.83;39.23;102584.31;5087442;28;20052;-72
2023/05/18 12:53:48;;;;;;;5.68;2.63;;;;;;;17.13;38.69;102596.81;5063958;28;20408;-72
2023/05/18 12:57:00;;;;;;;10.05;3.22;;;;;;;17.17;37.72;102593.13;5067090;28;20057;-72
2023/05/18 12:59:50;;;;;;;10.50;3.20;;;;;;;16.95;38.93;102596.41;5068348;28;20060;-72
2023/05/18 13:02:37;;;;;;;6.88;2.72;;;;;;;17.03;40.82;102602.41;5088529;28;20044;-72
2023/05/18 13:05:23;;;;;;;7.25;2.33;;;;;;;17.16;37.49;102597.59;5087851;28;20041;-73